createdAt,value
2018-07-11T00:00:37.264Z,39.50
2018-07-11T00:01:37.254Z,37.40
2018-07-11T00:02:37.266Z,40.30
2018-07-11T00:03:37.228Z,39.90
2018-07-11T00:04:37.221Z,39.40
2018-07-11T00:05:37.207Z,45.20
2018-07-11T00:06:37.196Z,41.20
2018-07-11T00:07:37.185Z,40.80
2018-07-11T00:08:37.190Z,40.20
2018-07-11T00:09:37.163Z,36.80
2018-07-11T00:10:37.153Z,40.20
2018-07-11T00:11:37.143Z,38.40
2018-07-11T00:12:37.134Z,39.20
2018-07-11T00:13:37.159Z,38.00
2018-07-11T00:14:37.111Z,38.70
2018-07-11T00:15:37.100Z,40.20
2018-07-11T00:16:37.091Z,42.30
2018-07-11T00:17:37.078Z,43.10
2018-07-11T00:18:37.068Z,42.10
2018-07-11T00:19:37.080Z,42.20
2018-07-11T00:20:37.047Z,44.90
2018-07-11T00:21:37.034Z,41.40
2018-07-11T00:22:37.025Z,45.30
2018-07-11T00:23:37.016Z,46.40
2018-07-11T00:24:37.016Z,46.60
2018-07-11T00:25:36.992Z,44.30
2018-07-11T00:26:36.980Z,44.10
2018-07-11T00:27:36.971Z,47.10
2018-07-11T00:28:36.958Z,51.30
2018-07-11T00:29:36.959Z,45.10
2018-07-11T00:30:36.950Z,47.60
2018-07-11T00:31:36.927Z,46.40
2018-07-11T00:32:36.928Z,52.00
2018-07-11T00:33:36.902Z,47.80
2018-07-11T00:34:36.893Z,50.60
2018-07-11T00:35:36.882Z,49.40
2018-07-11T00:36:36.872Z,47.70
2018-07-11T00:37:36.860Z,46.70
2018-07-11T00:38:36.863Z,46.90
2018-07-11T00:39:36.882Z,48.50
2018-07-11T00:40:36.830Z,41.10
2018-07-11T00:41:36.818Z,44.30
2018-07-11T00:42:36.809Z,43.40
2018-07-11T00:43:36.792Z,42.60
2018-07-11T00:44:36.784Z,45.80
2018-07-11T00:45:36.784Z,44.30
2018-07-11T00:46:36.785Z,41.30
2018-07-11T00:47:36.751Z,42.50
2018-07-11T00:48:37.403Z,41.30
2018-07-11T00:49:36.727Z,40.30
2018-07-11T00:50:36.717Z,41.70
2018-07-11T00:51:36.710Z,47.80
2018-07-11T00:52:36.712Z,42.90
2018-07-11T00:53:36.684Z,38.20
2018-07-11T00:54:36.677Z,42.10
2018-07-11T00:55:36.666Z,37.40
2018-07-11T00:56:36.667Z,38.90
2018-07-11T00:57:36.644Z,41.00
2018-07-11T00:58:36.633Z,38.90
2018-07-11T00:59:36.623Z,41.70
2018-07-11T01:00:36.608Z,34.90
2018-07-11T01:01:36.610Z,35.80
2018-07-11T01:02:36.586Z,35.00
2018-07-11T01:03:36.578Z,35.80
2018-07-11T01:04:36.580Z,33.70
2018-07-11T01:05:36.557Z,30.70
2018-07-11T01:06:36.561Z,33.10
2018-07-11T01:07:36.532Z,33.30
2018-07-11T01:08:36.524Z,31.80
2018-07-11T01:09:36.511Z,31.60
2018-07-11T01:10:36.503Z,32.20
2018-07-11T01:11:36.505Z,29.90
2018-07-11T01:12:36.491Z,32.90
2018-07-11T01:13:36.467Z,35.40
2018-07-11T01:14:36.473Z,34.70
2018-07-11T01:15:36.453Z,29.60
2018-07-11T01:16:36.438Z,33.90
2018-07-11T01:17:36.441Z,33.20
2018-07-11T01:18:36.415Z,32.40
2018-07-11T01:19:36.403Z,29.90
2018-07-11T01:20:36.391Z,31.30
2018-07-11T01:21:36.397Z,29.30
2018-07-11T01:22:36.388Z,30.80
2018-07-11T01:23:36.359Z,30.50
2018-07-11T01:24:36.347Z,29.90
2018-07-11T01:25:36.339Z,32.70
2018-07-11T01:26:36.326Z,30.10
2018-07-11T01:27:36.317Z,31.50
2018-07-11T01:28:36.319Z,31.40
2018-07-11T01:29:36.292Z,28.60
2018-07-11T01:30:36.280Z,28.20
2018-07-11T01:31:36.295Z,31.10
2018-07-11T01:32:36.259Z,28.30
2018-07-11T01:33:36.247Z,30.60
2018-07-11T01:34:36.237Z,27.20
2018-07-11T01:35:36.226Z,28.10
2018-07-11T01:36:36.215Z,27.10
2018-07-11T01:37:36.223Z,29.20
2018-07-11T01:38:36.193Z,29.60
2018-07-11T01:39:36.182Z,27.90
2018-07-11T01:40:36.173Z,29.80
2018-07-11T01:41:36.166Z,28.10
2018-07-11T01:42:36.152Z,26.30
2018-07-11T01:43:36.147Z,26.00
2018-07-11T01:44:36.130Z,26.80
2018-07-11T01:45:36.119Z,25.30
2018-07-11T01:46:36.121Z,29.90
2018-07-11T01:47:36.095Z,27.30
2018-07-11T01:48:36.101Z,26.40
2018-07-11T01:49:36.087Z,26.50
2018-07-11T01:50:36.062Z,27.60
2018-07-11T01:51:36.052Z,27.20
2018-07-11T01:52:36.040Z,28.50
2018-07-11T01:53:36.028Z,25.60
2018-07-11T01:54:36.035Z,25.60
2018-07-11T01:55:36.009Z,25.90
2018-07-11T01:56:35.999Z,27.90
2018-07-11T01:57:35.988Z,25.70
2018-07-11T01:58:35.976Z,26.00
2018-07-11T01:59:35.980Z,25.70
2018-07-11T02:00:35.951Z,29.20
2018-07-11T02:01:35.944Z,28.30
2018-07-11T02:02:35.930Z,29.70
2018-07-11T02:03:35.932Z,31.90
2018-07-11T02:04:35.908Z,37.00
2018-07-11T02:05:35.900Z,34.30
2018-07-11T02:06:35.900Z,35.60
2018-07-11T02:07:35.879Z,32.90
2018-07-11T02:08:35.867Z,33.70
2018-07-11T02:09:35.855Z,34.40
2018-07-11T02:10:35.850Z,34.10
2018-07-11T02:11:35.850Z,29.90
2018-07-11T02:12:35.821Z,28.00
2018-07-11T02:13:35.822Z,29.60
2018-07-11T02:14:35.799Z,32.70
2018-07-11T02:15:35.792Z,33.00
2018-07-11T02:16:35.779Z,30.80
2018-07-11T02:17:35.784Z,28.50
2018-07-11T02:18:35.770Z,29.60
2018-07-11T02:19:35.748Z,30.10
2018-07-11T02:20:35.737Z,31.80
2018-07-11T02:21:35.729Z,28.40
2018-07-11T02:22:35.712Z,31.60
2018-07-11T02:23:35.717Z,36.50
2018-07-11T02:24:35.693Z,33.30
2018-07-11T02:25:35.687Z,35.50
2018-07-11T02:26:35.672Z,37.40
2018-07-11T02:27:35.663Z,31.90
2018-07-11T02:28:35.659Z,33.10
2018-07-11T02:29:35.660Z,33.90
2018-07-11T02:30:35.630Z,34.60
2018-07-11T02:31:35.623Z,35.20
2018-07-11T02:32:35.613Z,32.50
2018-07-11T02:33:35.600Z,32.80
2018-07-11T02:34:35.589Z,32.10
2018-07-11T02:35:35.588Z,31.40
2018-07-11T02:36:35.563Z,30.60
2018-07-11T02:37:35.548Z,32.00
2018-07-11T02:38:35.541Z,33.10
2018-07-11T02:39:35.531Z,27.80
2018-07-11T02:40:35.537Z,28.70
2018-07-11T02:41:35.508Z,28.30
2018-07-11T02:42:35.495Z,29.70
2018-07-11T02:43:35.483Z,28.30
2018-07-11T02:44:35.471Z,29.50
2018-07-11T02:45:35.481Z,35.40
2018-07-11T02:46:35.454Z,32.80
2018-07-11T02:47:35.443Z,30.80
2018-07-11T02:48:35.447Z,28.40
2018-07-11T02:49:35.421Z,31.90
2018-07-11T02:50:35.415Z,33.20
2018-07-11T02:51:35.399Z,35.40
2018-07-11T02:52:35.388Z,39.30
2018-07-11T02:53:35.381Z,47.20
2018-07-11T02:54:35.377Z,37.00
2018-07-11T02:55:35.355Z,39.00
2018-07-11T02:56:35.346Z,40.60
2018-07-11T02:57:35.350Z,36.40
2018-07-11T02:58:35.320Z,42.20
2018-07-11T02:59:35.308Z,39.10
2018-07-11T03:00:35.301Z,38.80
2018-07-11T03:01:35.290Z,31.10
2018-07-11T03:02:35.290Z,34.10
2018-07-11T03:03:35.264Z,33.60
2018-07-11T03:04:35.256Z,31.80
2018-07-11T03:05:35.243Z,30.20
2018-07-11T03:06:35.237Z,31.50
2018-07-11T03:07:35.239Z,27.70
2018-07-11T03:08:35.213Z,25.80
2018-07-11T03:09:35.213Z,32.30
2018-07-11T03:10:35.192Z,28.30
2018-07-11T03:11:35.182Z,24.80
2018-07-11T03:12:35.171Z,24.90
2018-07-11T03:13:35.158Z,26.40
2018-07-11T03:14:35.167Z,26.90
2018-07-11T03:15:35.139Z,30.70
2018-07-11T03:16:35.129Z,26.40
2018-07-11T03:17:35.114Z,24.60
2018-07-11T03:18:35.107Z,28.90
2018-07-11T03:19:35.115Z,28.10
2018-07-11T03:20:35.082Z,28.60
2018-07-11T03:21:35.076Z,28.00
2018-07-11T03:22:35.062Z,26.40
2018-07-11T03:23:35.052Z,28.00
2018-07-11T03:24:35.041Z,29.10
2018-07-11T03:25:35.041Z,32.60
2018-07-11T03:26:35.044Z,28.80
2018-07-11T03:27:35.008Z,27.80
2018-07-11T03:28:34.999Z,25.70
2018-07-11T03:29:34.984Z,27.90
2018-07-11T03:30:34.976Z,26.90
2018-07-11T03:31:34.967Z,26.00
2018-07-11T03:32:35.043Z,31.00
2018-07-11T03:33:34.940Z,26.00
2018-07-11T03:34:34.934Z,27.20
2018-07-11T03:35:34.937Z,28.70
2018-07-11T03:36:34.909Z,29.00
2018-07-11T03:37:34.897Z,25.30
2018-07-11T03:38:34.889Z,25.50
2018-07-11T03:39:34.876Z,27.60
2018-07-11T03:40:34.869Z,25.70
2018-07-11T03:41:34.873Z,26.60
2018-07-11T03:42:34.842Z,26.60
2018-07-11T03:43:34.837Z,28.00
2018-07-11T03:44:34.839Z,25.40
2018-07-11T03:45:34.816Z,24.40
2018-07-11T03:46:34.805Z,23.00
2018-07-11T03:47:34.788Z,20.70
2018-07-11T03:48:34.797Z,23.30
2018-07-11T03:49:34.783Z,21.80
2018-07-11T03:50:34.774Z,22.90
2018-07-11T03:51:34.748Z,21.60
2018-07-11T03:52:34.735Z,22.80
2018-07-11T03:53:34.724Z,21.90
2018-07-11T03:54:34.719Z,23.10
2018-07-11T03:55:34.719Z,22.00
2018-07-11T03:56:34.692Z,20.70
2018-07-11T03:57:34.681Z,20.10
2018-07-11T03:58:34.672Z,24.90
2018-07-11T03:59:34.663Z,21.00
2018-07-11T04:00:34.666Z,20.70
2018-07-11T04:01:34.640Z,24.10
2018-07-11T04:02:34.627Z,19.90
2018-07-11T04:03:34.621Z,20.80
2018-07-11T04:04:34.605Z,23.00
2018-07-11T04:05:34.611Z,23.00
2018-07-11T04:06:34.587Z,21.30
2018-07-11T04:07:34.575Z,21.10
2018-07-11T04:08:34.567Z,19.70
2018-07-11T04:09:34.559Z,19.30
2018-07-11T04:10:34.539Z,21.70
2018-07-11T04:11:34.564Z,21.10
2018-07-11T04:12:34.518Z,22.10
2018-07-11T04:13:34.509Z,17.10
2018-07-11T04:14:34.496Z,20.30
2018-07-11T04:15:34.488Z,20.20
2018-07-11T04:16:34.476Z,20.50
2018-07-11T04:17:34.488Z,21.00
2018-07-11T04:18:34.456Z,17.70
2018-07-11T04:19:34.443Z,16.70
2018-07-11T04:20:34.435Z,19.70
2018-07-11T04:21:34.425Z,19.50
2018-07-11T04:22:34.412Z,20.30
2018-07-11T04:23:34.423Z,18.80
2018-07-11T04:24:34.387Z,22.80
2018-07-11T04:25:34.377Z,19.60
2018-07-11T04:26:34.369Z,18.10
2018-07-11T04:27:34.359Z,20.00
2018-07-11T04:28:34.347Z,18.20
2018-07-11T04:29:34.346Z,17.10
2018-07-11T04:30:34.332Z,15.90
2018-07-11T04:31:34.312Z,15.40
2018-07-11T04:32:34.303Z,19.10
2018-07-11T04:33:34.300Z,17.60
2018-07-11T04:34:34.287Z,19.10
2018-07-11T04:35:34.268Z,17.60
2018-07-11T04:36:34.269Z,19.90
2018-07-11T04:37:34.247Z,21.50
2018-07-11T04:38:34.234Z,17.00
2018-07-11T04:39:34.235Z,16.70
2018-07-11T04:40:34.212Z,19.00
2018-07-11T04:41:34.202Z,17.50
2018-07-11T04:42:34.208Z,18.70
2018-07-11T04:43:34.183Z,16.20
2018-07-11T04:44:34.180Z,18.40
2018-07-11T04:45:34.162Z,20.80
2018-07-11T04:46:34.150Z,16.70
2018-07-11T04:47:34.139Z,16.20
2018-07-11T04:48:34.124Z,18.10
2018-07-11T04:49:34.126Z,19.40
2018-07-11T04:50:34.117Z,18.40
2018-07-11T04:51:34.091Z,16.40
2018-07-11T04:52:34.118Z,18.80
2018-07-11T04:53:34.069Z,15.60
2018-07-11T04:54:34.058Z,17.00
2018-07-11T04:55:34.052Z,16.30
2018-07-11T04:56:34.041Z,18.40
2018-07-11T04:57:34.029Z,20.10
2018-07-11T04:58:34.036Z,19.00
2018-07-11T04:59:34.005Z,17.50
2018-07-11T05:00:34.007Z,18.00
2018-07-11T05:01:33.985Z,16.80
2018-07-11T05:02:33.978Z,15.50
2018-07-11T05:03:33.961Z,15.20
2018-07-11T05:04:33.949Z,16.00
2018-07-11T05:05:33.961Z,17.20
2018-07-11T05:06:33.932Z,17.60
2018-07-11T05:07:33.919Z,15.30
2018-07-11T05:08:33.910Z,18.00
2018-07-11T05:09:33.901Z,17.10
2018-07-11T05:10:33.891Z,17.20
2018-07-11T05:11:33.891Z,13.00
2018-07-11T05:12:33.867Z,13.60
2018-07-11T05:13:33.855Z,17.30
2018-07-11T05:14:33.847Z,13.80
2018-07-11T05:15:33.845Z,16.80
2018-07-11T05:16:33.825Z,13.20
2018-07-11T05:17:33.812Z,15.20
2018-07-11T05:18:33.832Z,15.50
2018-07-11T05:19:33.792Z,14.50
2018-07-11T05:20:33.781Z,13.60
2018-07-11T05:21:33.771Z,15.20
2018-07-11T05:22:33.760Z,15.40
2018-07-11T05:23:33.748Z,15.50
2018-07-11T05:24:33.756Z,16.90
2018-07-11T05:25:33.731Z,16.00
2018-07-11T05:26:33.721Z,15.80
2018-07-11T05:27:33.744Z,14.10
2018-07-11T05:28:33.700Z,13.20
2018-07-11T05:29:33.704Z,12.60
2018-07-11T05:30:33.678Z,12.60
2018-07-11T05:31:33.665Z,15.10
2018-07-11T05:32:33.661Z,14.40
2018-07-11T05:33:33.650Z,16.00
2018-07-11T05:34:33.661Z,15.60
2018-07-11T05:35:33.624Z,13.50
2018-07-11T05:36:33.614Z,14.40
2018-07-11T05:37:33.602Z,14.80
2018-07-11T05:38:33.593Z,15.60
2018-07-11T05:39:33.584Z,12.90
2018-07-11T05:40:33.599Z,16.40
2018-07-11T05:41:33.563Z,14.80
2018-07-11T05:42:33.599Z,19.80
2018-07-11T05:43:33.551Z,14.10
2018-07-11T05:44:33.528Z,13.80
2018-07-11T05:45:33.521Z,15.70
2018-07-11T05:46:33.509Z,14.40
2018-07-11T05:47:33.513Z,15.70
2018-07-11T05:48:33.487Z,18.80
2018-07-11T05:49:33.479Z,15.10
2018-07-11T05:50:33.466Z,16.30
2018-07-11T05:51:33.459Z,14.10
2018-07-11T05:52:33.465Z,17.30
2018-07-11T05:53:33.437Z,13.50
2018-07-11T05:54:33.437Z,13.60
2018-07-11T05:55:33.414Z,13.20
2018-07-11T05:56:33.404Z,15.10
2018-07-11T05:57:33.395Z,14.40
2018-07-11T05:58:33.398Z,13.30
2018-07-11T05:59:33.372Z,17.10
2018-07-11T06:00:33.359Z,17.10
2018-07-11T06:01:33.348Z,13.80
2018-07-11T06:02:33.341Z,14.40
2018-07-11T06:03:33.330Z,16.30
2018-07-11T06:04:33.337Z,11.70
2018-07-11T06:05:33.349Z,14.80
2018-07-11T06:06:33.294Z,15.40
2018-07-11T06:07:33.282Z,13.60
2018-07-11T06:08:33.274Z,15.80
2018-07-11T06:09:33.263Z,17.10
2018-07-11T06:10:33.266Z,13.30
2018-07-11T06:11:33.237Z,15.10
2018-07-11T06:12:33.227Z,13.10
2018-07-11T06:13:33.278Z,14.90
2018-07-11T06:14:33.207Z,12.80
2018-07-11T06:15:33.193Z,14.10
2018-07-11T06:16:33.184Z,13.60
2018-07-11T06:17:33.173Z,18.70
2018-07-11T06:18:33.176Z,14.70
2018-07-11T06:19:33.154Z,12.30
2018-07-11T06:20:33.145Z,12.10
2018-07-11T06:21:33.126Z,14.10
2018-07-11T06:22:33.118Z,14.60
2018-07-11T06:23:33.106Z,14.90
2018-07-11T06:24:33.110Z,16.20
2018-07-11T06:25:33.083Z,16.40
2018-07-11T06:26:33.074Z,13.30
2018-07-11T06:27:33.065Z,13.40
2018-07-11T06:28:33.049Z,13.00
2018-07-11T06:29:33.053Z,16.90
2018-07-11T06:30:33.029Z,12.00
2018-07-11T06:31:33.019Z,13.20
2018-07-11T06:32:33.007Z,14.50
2018-07-11T06:33:33.132Z,14.20
2018-07-11T06:34:32.987Z,13.20
2018-07-11T06:35:33.015Z,13.60
2018-07-11T06:36:32.962Z,15.60
2018-07-11T06:37:32.957Z,15.10
2018-07-11T06:38:32.945Z,14.60
2018-07-11T06:39:32.930Z,15.70
2018-07-11T06:40:32.922Z,15.90
2018-07-11T06:41:32.924Z,17.70
2018-07-11T06:42:32.900Z,13.00
2018-07-11T06:43:32.884Z,16.60
2018-07-11T06:44:32.972Z,16.50
2018-07-11T06:45:32.880Z,15.60
2018-07-11T06:46:32.859Z,17.00
2018-07-11T06:47:32.841Z,16.20
2018-07-11T06:48:32.830Z,16.20
2018-07-11T06:49:32.817Z,16.70
2018-07-11T06:50:32.823Z,15.90
2018-07-11T06:51:32.798Z,16.80
2018-07-11T06:52:32.785Z,16.00
2018-07-11T06:53:32.793Z,14.10
2018-07-11T06:54:32.766Z,14.60
2018-07-11T06:55:32.753Z,15.10
2018-07-11T06:56:32.744Z,15.40
2018-07-11T06:57:32.779Z,13.50
2018-07-11T06:58:32.723Z,14.50
2018-07-11T06:59:32.725Z,11.90
2018-07-11T07:00:32.698Z,15.30
2018-07-11T07:01:32.724Z,15.40
2018-07-11T07:02:32.680Z,13.20
2018-07-11T07:03:32.745Z,14.10
2018-07-11T07:04:32.656Z,13.60
2018-07-11T07:05:32.647Z,11.40
2018-07-11T07:06:32.635Z,13.10
2018-07-11T07:07:32.637Z,15.90
2018-07-11T07:08:32.624Z,14.40
2018-07-11T07:09:32.600Z,14.30
2018-07-11T07:10:32.610Z,13.10
2018-07-11T07:11:32.583Z,14.30
2018-07-11T07:12:32.567Z,12.00
2018-07-11T07:13:32.556Z,11.90
2018-07-11T07:14:32.547Z,14.10
2018-07-11T07:15:32.539Z,12.80
2018-07-11T07:16:32.552Z,17.60
2018-07-11T07:17:32.518Z,14.00
2018-07-11T07:18:32.504Z,13.60
2018-07-11T07:19:32.492Z,13.60
2018-07-11T07:20:32.493Z,14.60
2018-07-11T07:21:32.493Z,14.40
2018-07-11T07:22:32.537Z,14.70
2018-07-11T07:23:32.449Z,15.20
2018-07-11T07:24:32.442Z,14.90
2018-07-11T07:25:32.428Z,13.50
2018-07-11T07:26:32.419Z,16.50
2018-07-11T07:27:32.423Z,14.40
2018-07-11T07:28:32.397Z,16.90
2018-07-11T07:29:32.383Z,15.30
2018-07-11T07:30:32.373Z,15.80
2018-07-11T07:31:32.364Z,14.60
2018-07-11T07:32:32.364Z,14.40
2018-07-11T07:33:32.342Z,17.80
2018-07-11T07:34:32.330Z,12.70
2018-07-11T07:35:32.318Z,18.00
2018-07-11T07:36:32.329Z,12.10
2018-07-11T07:37:32.301Z,17.00
2018-07-11T07:38:32.288Z,14.40
2018-07-11T07:39:32.276Z,17.10
2018-07-11T07:40:32.264Z,16.50
2018-07-11T07:41:32.254Z,19.70
2018-07-11T07:42:32.282Z,18.00
2018-07-11T07:43:32.233Z,19.60
2018-07-11T07:44:32.224Z,15.30
2018-07-11T07:45:32.210Z,17.00
2018-07-11T07:46:32.198Z,18.00
2018-07-11T07:47:32.188Z,16.80
2018-07-11T07:48:32.192Z,17.10
2018-07-11T07:49:32.170Z,19.70
2018-07-11T07:50:32.157Z,15.60
2018-07-11T07:51:32.145Z,14.50
2018-07-11T07:52:32.153Z,15.60
2018-07-11T07:53:32.123Z,15.10
2018-07-11T07:54:32.111Z,18.20
2018-07-11T07:55:32.100Z,16.40
2018-07-11T07:56:32.090Z,18.70
2018-07-11T07:57:32.078Z,15.40
2018-07-11T07:58:32.082Z,16.00
2018-07-11T07:59:32.057Z,17.20
2018-07-11T08:00:32.074Z,22.00
2018-07-11T08:01:32.037Z,17.80
2018-07-11T08:02:32.025Z,14.50
2018-07-11T08:03:32.025Z,15.20
2018-07-11T08:04:32.003Z,17.60
2018-07-11T08:05:32.008Z,19.90
2018-07-11T08:06:31.982Z,20.00
2018-07-11T08:07:31.970Z,15.50
2018-07-11T08:08:31.971Z,18.50
2018-07-11T08:09:31.948Z,15.90
2018-07-11T08:10:31.944Z,13.00
2018-07-11T08:11:31.928Z,20.70
2018-07-11T08:12:31.973Z,17.70
2018-07-11T08:13:31.905Z,21.10
2018-07-11T08:14:31.894Z,21.40
2018-07-11T08:15:31.883Z,20.50
2018-07-11T08:16:31.872Z,17.10
2018-07-11T08:17:31.858Z,19.60
2018-07-11T08:18:31.863Z,14.70
2018-07-11T08:19:31.839Z,18.60
2018-07-11T08:20:31.826Z,20.90
2018-07-11T08:21:31.922Z,16.20
2018-07-11T08:22:31.820Z,17.30
2018-07-11T08:23:31.813Z,16.70
2018-07-11T08:24:31.785Z,16.50
2018-07-11T08:25:31.774Z,18.20
2018-07-11T08:26:31.760Z,19.70
2018-07-11T08:27:31.823Z,22.40
2018-07-11T08:28:31.740Z,24.80
2018-07-11T08:29:31.742Z,16.00
2018-07-11T08:30:31.716Z,18.30
2018-07-11T08:31:31.705Z,17.40
2018-07-11T08:32:31.707Z,15.30
2018-07-11T08:33:31.687Z,16.00
2018-07-11T08:34:31.718Z,14.60
2018-07-11T08:35:31.662Z,20.50
2018-07-11T08:36:31.677Z,19.40
2018-07-11T08:37:31.640Z,16.50
2018-07-11T08:38:31.629Z,16.40
2018-07-11T08:39:31.620Z,16.20
2018-07-11T08:40:31.614Z,14.80
2018-07-11T08:41:31.598Z,19.90
2018-07-11T08:42:31.601Z,18.60
2018-07-11T08:43:31.578Z,17.60
2018-07-11T08:44:31.567Z,15.50
2018-07-11T08:45:31.557Z,21.20
2018-07-11T08:46:31.546Z,16.00
2018-07-11T08:47:31.555Z,18.20
2018-07-11T08:48:31.526Z,17.10
2018-07-11T08:49:31.524Z,18.00
2018-07-11T08:50:31.502Z,21.30
2018-07-11T08:51:31.487Z,17.50
2018-07-11T08:52:31.491Z,19.80
2018-07-11T08:53:31.469Z,19.10
2018-07-11T08:54:31.459Z,17.40
2018-07-11T08:55:31.460Z,16.10
2018-07-11T08:56:31.434Z,17.50
2018-07-11T08:57:31.455Z,22.60
2018-07-11T08:58:31.464Z,19.60
2018-07-11T08:59:31.399Z,18.60
2018-07-11T09:00:31.388Z,16.90
2018-07-11T09:01:31.380Z,21.50
2018-07-11T09:02:31.371Z,19.30
2018-07-11T09:03:31.356Z,22.90
2018-07-11T09:04:31.360Z,16.50
2018-07-11T09:05:31.359Z,18.20
2018-07-11T09:06:31.326Z,19.30
2018-07-11T09:07:31.314Z,19.00
2018-07-11T09:08:31.305Z,21.60
2018-07-11T09:09:31.293Z,19.10
2018-07-11T09:10:31.292Z,16.70
2018-07-11T09:11:31.286Z,20.80
2018-07-11T09:12:31.257Z,19.10
2018-07-11T09:13:31.244Z,21.40
2018-07-11T09:14:31.237Z,17.80
2018-07-11T09:15:31.226Z,19.80
2018-07-11T09:16:31.212Z,21.10
2018-07-11T09:17:31.233Z,21.10
2018-07-11T09:18:31.190Z,26.10
2018-07-11T09:19:31.179Z,22.30
2018-07-11T09:20:31.168Z,20.80
2018-07-11T09:21:31.155Z,20.50
2018-07-11T09:22:31.146Z,18.30
2018-07-11T09:23:31.166Z,22.50
2018-07-11T09:24:31.128Z,20.00
2018-07-11T09:25:31.114Z,19.20
2018-07-11T09:26:31.101Z,21.50
2018-07-11T09:27:31.101Z,21.70
2018-07-11T09:28:31.081Z,20.40
2018-07-11T09:29:31.084Z,22.10
2018-07-11T09:30:31.082Z,22.40
2018-07-11T09:31:31.048Z,21.10
2018-07-11T09:32:31.037Z,21.90
2018-07-11T09:33:31.027Z,19.40
2018-07-11T09:34:31.031Z,19.90
2018-07-11T09:35:31.004Z,22.60
2018-07-11T09:36:30.997Z,22.20
2018-07-11T09:37:30.989Z,19.10
2018-07-11T09:38:30.975Z,22.50
2018-07-11T09:39:30.975Z,25.60
2018-07-11T09:40:30.951Z,20.00
2018-07-11T09:41:30.942Z,18.50
2018-07-11T09:42:30.929Z,21.70
2018-07-11T09:43:30.938Z,23.10
2018-07-11T09:44:30.915Z,21.00
2018-07-11T09:45:30.913Z,18.60
2018-07-11T09:46:30.886Z,18.60
2018-07-11T09:47:30.882Z,17.50
2018-07-11T09:48:30.868Z,20.50
2018-07-11T09:49:30.875Z,21.00
2018-07-11T09:50:30.845Z,20.00
2018-07-11T09:51:30.833Z,19.90
2018-07-11T09:52:30.823Z,23.80
2018-07-11T09:53:30.814Z,21.30
2018-07-11T09:54:30.800Z,20.90
2018-07-11T09:55:30.808Z,25.90
2018-07-11T09:56:30.778Z,19.90
2018-07-11T09:57:30.768Z,23.10
2018-07-11T09:58:30.760Z,22.40
2018-07-11T09:59:30.745Z,26.40
2018-07-11T10:00:30.736Z,24.90
2018-07-11T10:01:30.741Z,21.80
2018-07-11T10:02:30.713Z,25.40
2018-07-11T10:03:30.700Z,27.20
2018-07-11T10:04:30.705Z,24.60
2018-07-11T10:05:30.681Z,25.90
2018-07-11T10:06:30.687Z,23.20
2018-07-11T10:07:30.666Z,28.10
2018-07-11T10:08:30.645Z,23.90
2018-07-11T10:09:30.647Z,27.10
2018-07-11T10:10:30.623Z,24.90
2018-07-11T10:11:30.614Z,24.20
2018-07-11T10:12:30.632Z,27.30
2018-07-11T10:13:30.588Z,24.90
2018-07-11T10:14:30.578Z,27.90
2018-07-11T10:15:30.569Z,33.30
2018-07-11T10:16:30.562Z,25.10
2018-07-11T10:17:30.561Z,25.70
2018-07-11T10:18:30.537Z,26.80
2018-07-11T10:19:30.523Z,30.20
2018-07-11T10:20:30.511Z,26.50
2018-07-11T10:21:30.505Z,29.00
2018-07-11T10:22:30.511Z,27.60
2018-07-11T10:23:30.479Z,27.70
2018-07-11T10:24:30.471Z,26.90
2018-07-11T10:25:30.461Z,28.30
2018-07-11T10:26:30.452Z,29.80
2018-07-11T10:27:30.436Z,29.80
2018-07-11T10:28:30.438Z,25.80
2018-07-11T10:29:30.420Z,28.80
2018-07-11T10:30:30.419Z,29.10
2018-07-11T10:31:30.391Z,30.10
2018-07-11T10:32:30.382Z,32.70
2018-07-11T10:33:30.417Z,30.60
2018-07-11T10:34:30.375Z,40.10
2018-07-11T10:35:30.350Z,34.70
2018-07-11T10:36:30.350Z,32.10
2018-07-11T10:37:30.325Z,33.00
2018-07-11T10:38:30.313Z,35.00
2018-07-11T10:39:30.311Z,34.20
2018-07-11T10:40:30.295Z,30.00
2018-07-11T10:41:30.296Z,32.00
2018-07-11T10:42:30.285Z,30.10
2018-07-11T10:43:30.260Z,35.30
2018-07-11T10:44:30.249Z,34.80
2018-07-11T10:45:30.237Z,34.90
2018-07-11T10:46:30.227Z,35.50
2018-07-11T10:47:30.211Z,28.40
2018-07-11T10:48:30.216Z,31.20
2018-07-11T10:49:30.191Z,35.30
2018-07-11T10:50:30.231Z,27.90
2018-07-11T10:51:30.186Z,29.80
2018-07-11T10:52:30.160Z,31.50
2018-07-11T10:53:30.148Z,35.70
2018-07-11T10:54:30.140Z,34.50
2018-07-11T10:55:30.127Z,30.80
2018-07-11T10:56:30.115Z,34.90
2018-07-11T10:57:30.176Z,30.90
2018-07-11T10:58:30.093Z,33.70
2018-07-11T10:59:30.082Z,37.10
2018-07-11T11:00:36.664Z,29.40
2018-07-11T11:01:30.099Z,25.70
2018-07-11T11:02:30.065Z,25.10
2018-07-11T11:03:30.037Z,27.20
2018-07-11T11:04:30.024Z,26.40
2018-07-11T11:05:30.013Z,29.30
2018-07-11T11:06:30.007Z,26.00
2018-07-11T11:07:30.011Z,32.10
2018-07-11T11:08:29.982Z,30.30
2018-07-11T11:09:29.974Z,32.50
2018-07-11T11:10:29.961Z,29.60
2018-07-11T11:11:29.949Z,32.00
2018-07-11T11:12:29.937Z,34.30
2018-07-11T11:13:29.969Z,33.10
2018-07-11T11:14:29.916Z,30.50
2018-07-11T11:15:29.902Z,30.10
2018-07-11T11:16:29.894Z,30.40
2018-07-11T11:17:29.880Z,32.60
2018-07-11T11:18:29.872Z,34.20
2018-07-11T11:19:29.880Z,37.80
2018-07-11T11:20:29.850Z,39.50
2018-07-11T11:21:29.840Z,38.70
2018-07-11T11:22:29.826Z,41.10
2018-07-11T11:23:29.816Z,41.20
2018-07-11T11:24:29.805Z,42.30
2018-07-11T11:25:29.805Z,38.90
2018-07-11T11:26:29.786Z,38.40
2018-07-11T11:27:29.791Z,41.70
2018-07-11T11:28:29.780Z,43.10
2018-07-11T11:29:29.750Z,33.90
2018-07-11T11:30:29.741Z,31.60
2018-07-11T11:31:29.730Z,28.60
2018-07-11T11:32:29.720Z,30.30
2018-07-11T11:33:29.706Z,33.90
2018-07-11T11:34:29.709Z,35.20
2018-07-11T11:35:29.685Z,34.30
2018-07-11T11:36:29.674Z,35.30
2018-07-11T11:37:29.673Z,33.60
2018-07-11T11:38:29.650Z,35.60
2018-07-11T11:39:29.640Z,33.60
2018-07-11T11:40:29.626Z,31.30
2018-07-11T11:41:29.689Z,35.50
2018-07-11T11:42:29.839Z,34.40
2018-07-11T11:43:29.594Z,26.20
2018-07-11T11:44:29.584Z,32.10
2018-07-11T11:45:29.569Z,37.40
2018-07-11T11:46:29.562Z,33.00
2018-07-11T11:47:29.549Z,35.80
2018-07-11T11:48:29.559Z,32.50
2018-07-11T11:49:29.524Z,30.50
2018-07-11T11:50:29.516Z,30.60
2018-07-11T11:51:29.505Z,31.00
2018-07-11T11:52:29.491Z,26.40
2018-07-11T11:53:29.483Z,28.30
2018-07-11T11:54:29.487Z,28.60
2018-07-11T11:55:29.459Z,24.10
2018-07-11T11:56:29.450Z,22.20
2018-07-11T11:57:29.438Z,22.00
2018-07-11T11:58:29.489Z,23.10
2018-07-11T11:59:29.431Z,22.40
2018-07-11T12:00:29.406Z,23.80
2018-07-11T12:01:29.404Z,22.40
2018-07-11T12:02:29.387Z,19.30
2018-07-11T12:03:29.374Z,21.10
2018-07-11T12:04:29.360Z,24.00
2018-07-11T12:05:29.363Z,23.50
2018-07-11T12:06:29.335Z,23.00
2018-07-11T12:07:29.329Z,23.10
2018-07-11T12:08:29.317Z,23.60
2018-07-11T12:09:29.319Z,22.90
2018-07-11T12:10:29.296Z,23.10
2018-07-11T12:11:29.287Z,19.30
2018-07-11T12:12:29.285Z,20.00
2018-07-11T12:13:29.259Z,21.00
2018-07-11T12:14:29.253Z,21.00
2018-07-11T12:15:29.256Z,21.70
2018-07-11T12:16:29.228Z,19.30
2018-07-11T12:17:29.218Z,24.20
2018-07-11T12:18:29.211Z,22.70
2018-07-11T12:19:29.198Z,18.80
2018-07-11T12:20:29.207Z,20.90
2018-07-11T12:21:29.230Z,22.60
2018-07-11T12:22:29.162Z,21.10
2018-07-11T12:23:29.154Z,19.70
2018-07-11T12:24:29.141Z,20.70
2018-07-11T12:25:29.133Z,19.70
2018-07-11T12:26:29.139Z,19.10
2018-07-11T12:27:29.110Z,22.50
2018-07-11T12:28:29.101Z,19.90
2018-07-11T12:29:29.089Z,20.90
2018-07-11T12:30:29.075Z,21.20
2018-07-11T12:31:29.080Z,20.40
2018-07-11T12:32:29.054Z,20.20
2018-07-11T12:33:29.059Z,18.30
2018-07-11T12:34:29.033Z,19.30
2018-07-11T12:35:29.025Z,20.00
2018-07-11T12:36:29.029Z,23.50
2018-07-11T12:37:29.000Z,23.80
2018-07-11T12:38:28.991Z,24.30
2018-07-11T12:39:28.978Z,23.30
2018-07-11T12:40:28.970Z,23.70
2018-07-11T12:41:28.961Z,22.70
2018-07-11T12:42:28.962Z,21.90
2018-07-11T12:43:28.958Z,21.80
2018-07-11T12:44:28.923Z,19.60
2018-07-11T12:45:28.914Z,23.30
2018-07-11T12:46:28.919Z,24.20
2018-07-11T12:47:28.896Z,21.10
2018-07-11T12:48:28.897Z,21.10
2018-07-11T12:49:28.873Z,20.10
2018-07-11T12:50:28.864Z,22.00
2018-07-11T12:51:28.849Z,20.10
2018-07-11T12:52:28.841Z,20.20